createdAt,value
2022-10-17T00:01:15.727Z,100133.23
2022-10-17T00:06:42.983Z,100139.33
2022-10-17T00:11:51.251Z,100138.26
2022-10-17T00:16:58.389Z,100140.77
2022-10-17T00:22:05.478Z,100147.00
2022-10-17T00:27:12.649Z,100151.45
2022-10-17T00:32:21.500Z,100154.91
2022-10-17T00:37:29.214Z,100158.00
2022-10-17T00:42:36.616Z,100159.16
2022-10-17T00:47:46.046Z,100159.23
2022-10-17T00:52:55.926Z,100159.45
2022-10-17T00:58:06.206Z,100153.95
2022-10-17T01:03:13.930Z,100154.17
2022-10-17T01:08:23.676Z,100148.77
2022-10-17T01:13:36.149Z,100151.64
2022-10-17T01:18:52.823Z,100152.51
2022-10-17T01:24:43.177Z,100152.48
2022-10-17T01:30:21.148Z,100153.95
2022-10-17T01:35:34.190Z,100159.50
2022-10-17T01:40:48.354Z,100158.45
2022-10-17T01:46:02.773Z,100155.67
2022-10-17T01:51:17.127Z,100151.20
2022-10-17T01:56:29.835Z,100151.72
2022-10-17T02:01:39.524Z,100155.39
2022-10-17T02:06:46.577Z,100153.81
2022-10-17T02:12:12.353Z,100158.59
2022-10-17T02:17:29.267Z,100167.86
2022-10-17T02:22:44.238Z,100160.49
2022-10-17T02:28:00.502Z,100154.09
2022-10-17T02:33:12.265Z,100160.67
2022-10-17T02:40:52.004Z,100162.73
2022-10-17T02:45:59.642Z,100160.94
2022-10-17T02:51:13.471Z,100164.61
2022-10-17T02:56:22.936Z,100170.95
2022-10-17T03:01:32.033Z,100182.30
2022-10-17T03:06:40.160Z,100181.84
2022-10-17T03:11:48.027Z,100178.93
2022-10-17T03:16:55.845Z,100179.34
2022-10-17T03:22:02.774Z,100186.55
2022-10-17T03:27:08.281Z,100196.10
2022-10-17T03:32:15.931Z,100204.56
2022-10-17T03:37:24.157Z,100206.96
2022-10-17T03:42:32.898Z,100212.89
2022-10-17T03:47:40.493Z,100215.31
2022-10-17T03:52:52.367Z,100227.17
2022-10-17T03:58:00.114Z,100233.05
2022-10-17T04:03:08.199Z,100226.11
2022-10-17T04:08:15.814Z,100217.34
2022-10-17T04:13:22.833Z,100228.91
2022-10-17T04:18:28.329Z,100231.13
2022-10-17T04:23:36.915Z,100222.93
2022-10-17T04:28:44.207Z,100234.14
2022-10-17T04:33:52.679Z,100241.92
2022-10-17T04:39:01.963Z,100250.30
2022-10-17T04:44:09.974Z,100249.18
2022-10-17T04:49:17.513Z,100247.65
2022-10-17T04:54:26.626Z,100245.90
2022-10-17T04:59:33.701Z,100246.63
2022-10-17T05:04:39.113Z,100248.58
2022-10-17T05:09:46.400Z,100260.57
2022-10-17T05:14:54.156Z,100258.75
2022-10-17T05:20:01.070Z,100258.61
2022-10-17T05:25:09.615Z,100267.55
2022-10-17T05:30:17.083Z,100266.75
2022-10-17T05:41:05.262Z,100262.58
2022-10-17T05:46:13.298Z,100272.73
2022-10-17T05:51:21.347Z,100275.60
2022-10-17T05:56:28.470Z,100284.16
2022-10-17T06:01:36.492Z,100294.96
2022-10-17T06:06:43.736Z,100300.02
2022-10-17T06:11:51.645Z,100307.94
2022-10-17T06:16:59.412Z,100310.98
2022-10-17T06:22:06.437Z,100319.98
2022-10-17T06:27:12.327Z,100320.70
2022-10-17T06:32:20.615Z,100325.41
2022-10-17T06:37:29.226Z,100329.45
2022-10-17T06:42:39.740Z,100333.43
2022-10-17T06:47:47.133Z,100342.55
2022-10-17T06:52:55.876Z,100347.67
2022-10-17T06:58:03.077Z,100352.45
2022-10-17T07:03:11.020Z,100352.52
2022-10-17T07:18:13.167Z,100367.17
2022-10-17T07:23:21.865Z,100364.07
2022-10-17T07:28:29.825Z,100367.34
2022-10-17T07:33:37.548Z,100367.87
2022-10-17T07:38:45.843Z,100363.23
2022-10-17T07:43:53.378Z,100357.55
2022-10-17T07:49:00.887Z,100350.73
2022-10-17T07:54:10.060Z,100350.48
2022-10-17T07:59:17.799Z,100362.59
2022-10-17T08:04:25.415Z,100363.82
2022-10-17T08:09:32.842Z,100372.24
2022-10-17T08:14:41.713Z,100382.96
2022-10-17T08:19:49.851Z,100385.17
2022-10-17T08:24:56.969Z,100385.80
2022-10-17T08:30:04.689Z,100386.13
2022-10-17T08:35:15.060Z,100385.36
2022-10-17T08:40:26.456Z,100380.14
2022-10-17T08:45:37.614Z,100379.36
2022-10-17T08:50:51.048Z,100380.40
2022-10-17T08:56:04.578Z,100388.65
2022-10-17T09:01:27.415Z,100390.03
2022-10-17T09:06:39.060Z,100389.34
2022-10-17T09:11:58.721Z,100386.21
2022-10-17T09:17:17.698Z,100380.98
2022-10-17T09:22:30.424Z,100382.08
2022-10-17T09:27:44.684Z,100376.20
2022-10-17T09:32:54.656Z,100378.66
2022-10-17T09:38:02.686Z,100385.63
2022-10-17T09:55:31.973Z,100389.98
2022-10-17T10:00:38.435Z,100385.59
2022-10-17T10:05:44.023Z,100388.02
2022-10-17T10:10:57.519Z,100387.77
2022-10-17T10:16:24.167Z,100382.30
2022-10-17T10:21:28.652Z,100378.45
2022-10-17T10:26:39.338Z,100379.52
2022-10-17T10:31:43.956Z,100373.60
2022-10-17T10:36:53.542Z,100374.88
2022-10-17T10:41:57.556Z,100372.53
2022-10-17T10:47:20.618Z,100373.30
2022-10-17T10:52:41.060Z,100368.36
2022-10-17T10:57:48.692Z,100358.30
2022-10-17T11:03:02.025Z,100358.14
2022-10-17T11:08:18.382Z,100352.42
2022-10-17T11:13:28.413Z,100349.95
2022-10-17T11:18:39.907Z,100345.56
2022-10-17T11:23:47.751Z,100338.73
2022-10-17T11:28:53.102Z,100334.61
2022-10-17T11:34:00.322Z,100335.30
2022-10-17T11:39:08.870Z,100333.83
2022-10-17T11:44:20.296Z,100329.16
2022-10-17T11:49:28.992Z,100327.55
2022-10-17T11:54:37.935Z,100326.57
2022-10-17T12:00:05.602Z,100326.67
2022-10-17T12:05:25.654Z,100320.34
2022-10-17T12:10:40.383Z,100320.19
2022-10-17T12:15:46.621Z,100315.81
2022-10-17T12:20:59.038Z,100304.45
2022-10-17T12:26:05.770Z,100299.67
2022-10-17T12:31:22.727Z,100296.21
2022-10-17T12:36:50.034Z,100291.43
2022-10-17T12:41:58.127Z,100290.16
2022-10-17T12:47:29.092Z,100288.92
2022-10-17T12:52:58.406Z,100285.83
2022-10-17T12:58:07.889Z,100281.14
2022-10-17T13:03:17.262Z,100279.73
2022-10-17T13:08:24.886Z,100281.42
2022-10-17T13:13:47.112Z,100280.20
2022-10-17T13:18:54.481Z,100282.74
2022-10-17T13:23:58.930Z,100281.48
2022-10-17T13:29:05.612Z,100279.66
2022-10-17T13:34:19.658Z,100279.34
2022-10-17T13:39:44.878Z,100272.81
2022-10-17T13:44:51.496Z,100270.63
2022-10-17T13:49:57.868Z,100268.77
2022-10-17T13:55:16.813Z,100271.48
2022-10-17T14:00:23.356Z,100273.20
2022-10-17T14:05:28.804Z,100268.11
2022-10-17T14:10:36.276Z,100262.38
2022-10-17T14:15:46.406Z,100264.95
2022-10-17T14:26:20.783Z,100264.01
2022-10-17T14:31:30.008Z,100266.39
2022-10-17T14:36:37.491Z,100269.73
2022-10-17T14:41:46.010Z,100264.94
2022-10-17T14:46:56.375Z,100262.76
2022-10-17T14:52:28.996Z,100258.70
2022-10-17T14:57:43.536Z,100256.30
2022-10-17T15:02:49.690Z,100258.55
2022-10-17T15:07:55.325Z,100256.55
2022-10-17T15:13:26.071Z,100256.55
2022-10-17T15:18:24.737Z,100258.34
2022-10-17T15:23:28.455Z,100258.83
2022-10-17T15:28:32.160Z,100259.76
2022-10-17T15:33:36.302Z,100257.58
2022-10-17T15:38:40.546Z,100259.82
2022-10-17T15:43:44.554Z,100260.58
2022-10-17T15:48:49.563Z,100262.44
2022-10-17T15:53:53.368Z,100265.78
2022-10-17T15:58:58.364Z,100273.13
2022-10-17T16:04:02.923Z,100272.00
2022-10-17T16:09:06.963Z,100281.81
2022-10-17T16:14:13.178Z,100270.38
2022-10-17T16:19:17.597Z,100271.23
2022-10-17T16:24:22.246Z,100274.89
2022-10-17T16:29:26.638Z,100280.14
2022-10-17T16:34:32.000Z,100284.41
2022-10-17T16:39:36.153Z,100279.61
2022-10-17T16:44:40.598Z,100276.68
2022-10-17T16:49:45.557Z,100277.10
2022-10-17T16:54:51.052Z,100274.94
2022-10-17T16:59:55.092Z,100266.06
2022-10-17T17:04:58.947Z,100262.80
2022-10-17T17:10:04.051Z,100264.37
2022-10-17T17:15:09.099Z,100259.92
2022-10-17T17:20:14.458Z,100256.99
2022-10-17T17:25:20.335Z,100257.69
2022-10-17T17:30:23.931Z,100263.27
2022-10-17T17:35:28.683Z,100267.51
2022-10-17T17:40:34.366Z,100269.71
2022-10-17T17:45:38.904Z,100265.73
2022-10-17T17:50:44.191Z,100268.10
2022-10-17T17:55:49.116Z,100267.92
2022-10-17T18:00:53.368Z,100270.02
2022-10-17T18:05:57.200Z,100267.09
2022-10-17T18:11:01.488Z,100267.73
2022-10-17T18:16:12.619Z,100271.10
2022-10-17T18:21:16.651Z,100276.05
2022-10-17T18:26:21.949Z,100278.55
2022-10-17T18:31:28.062Z,100279.88
2022-10-17T18:36:34.890Z,100271.48
2022-10-17T18:41:38.497Z,100270.77
2022-10-17T18:46:42.758Z,100270.42
2022-10-17T18:51:47.807Z,100277.59
2022-10-17T18:56:54.829Z,100283.84
2022-10-17T19:01:58.575Z,100275.69
2022-10-17T19:07:02.556Z,100271.14
2022-10-17T19:12:06.994Z,100275.70
2022-10-17T19:17:11.023Z,100274.34
2022-10-17T19:22:15.418Z,100275.10
2022-10-17T19:27:20.574Z,100274.65
2022-10-17T19:32:24.583Z,100269.52
2022-10-17T19:37:30.104Z,100267.48
2022-10-17T19:42:34.932Z,100270.26
2022-10-17T19:47:39.331Z,100275.08
2022-10-17T19:52:43.062Z,100289.84
2022-10-17T19:57:47.638Z,100290.88
2022-10-17T20:02:52.468Z,100290.54
2022-10-17T20:07:57.035Z,100285.55
2022-10-17T20:13:00.963Z,100279.73
2022-10-17T20:18:05.678Z,100280.91
2022-10-17T20:23:09.395Z,100284.78
2022-10-17T20:28:13.326Z,100289.02
2022-10-17T20:33:18.193Z,100284.42
2022-10-17T20:38:22.338Z,100288.27
2022-10-17T20:43:26.880Z,100290.21
2022-10-17T20:48:31.378Z,100283.35
2022-10-17T20:53:37.582Z,100281.64
2022-10-17T20:58:41.892Z,100276.24
2022-10-17T21:03:46.703Z,100278.52
2022-10-17T21:08:54.187Z,100275.57
2022-10-17T21:14:00.431Z,100273.24
2022-10-17T21:19:05.673Z,100266.50
2022-10-17T21:24:13.925Z,100260.05
2022-10-17T21:29:19.673Z,100259.61
2022-10-17T21:34:24.444Z,100255.91
2022-10-17T21:39:28.032Z,100256.58
2022-10-17T21:44:32.332Z,100253.89
2022-10-17T21:49:37.740Z,100256.48
2022-10-17T21:54:41.620Z,100255.52
2022-10-17T21:59:45.994Z,100255.44
2022-10-17T22:04:50.393Z,100244.46
2022-10-17T22:09:55.406Z,100245.73
2022-10-17T22:14:59.599Z,100239.23
2022-10-17T22:20:03.848Z,100236.97
2022-10-17T22:25:10.305Z,100232.27
2022-10-17T22:30:15.664Z,100232.33
2022-10-17T22:35:19.850Z,100229.48
2022-10-17T22:40:23.567Z,100223.08
2022-10-17T22:45:27.097Z,100221.11
2022-10-17T22:50:30.833Z,100220.88
2022-10-17T22:55:35.022Z,100219.11
2022-10-17T23:00:39.725Z,100218.89
2022-10-17T23:05:43.636Z,100215.95
2022-10-17T23:10:48.868Z,100214.94
2022-10-17T23:15:54.161Z,100210.34
2022-10-17T23:20:57.757Z,100209.42
2022-10-17T23:26:10.318Z,100205.99
2022-10-17T23:31:17.344Z,100203.86
2022-10-17T23:40:55.985Z,100197.48
2022-10-17T23:46:03.768Z,100195.30
2022-10-17T23:51:12.075Z,100194.48
2022-10-17T23:56:19.712Z,100194.45
